Terminal Aerodrome Forecast
Issued by NWS Grand Forks, ND

Home | Current Version | Previous Version | Graphics & Text | Print | Product List | Glossary On
Versions: 1 2 3 4 5 6 7 8 9 10 11 12 13
000
FTUS43 KFGF 072300
TAFFAR
TAF
KFAR 072320Z 0800/0824 30015KT P6SM SCT060 BKN250
     FM080100 31013KT P6SM VCTS BKN060CB
     FM080300 31012KT P6SM VCSH SCT060 BKN250
     FM080400 31010KT P6SM SCT060
     FM081500 33015KT P6SM SCT050=

USA.gov is the U.S. government's official web portal to all federal, state and local government web resources and services.